createdAt,value
2019-05-20T00:02:23.179Z,10.95
2019-05-20T00:04:39.452Z,10.92
2019-05-20T00:07:08.064Z,10.90
2019-05-20T00:09:36.580Z,10.88
2019-05-20T00:12:05.203Z,10.84
2019-05-20T00:14:33.792Z,10.83
2019-05-20T00:17:02.344Z,10.80
2019-05-20T00:19:30.792Z,10.80
2019-05-20T00:21:59.340Z,10.77
2019-05-20T00:24:27.964Z,10.76
2019-05-20T00:26:56.582Z,10.75
2019-05-20T00:29:25.118Z,10.72
2019-05-20T00:31:53.735Z,10.68
2019-05-20T00:34:34.627Z,10.68
2019-05-20T00:36:52.681Z,10.66
2019-05-20T00:39:21.671Z,10.64
2019-05-20T00:41:50.374Z,10.63
2019-05-20T00:44:19.366Z,10.62
2019-05-20T00:46:47.951Z,10.61
2019-05-20T00:49:16.676Z,10.59
2019-05-20T00:51:46.173Z,10.60
2019-05-20T00:54:14.973Z,10.59
2019-05-20T00:56:43.585Z,10.61
2019-05-20T00:59:12.176Z,10.63
2019-05-20T01:01:40.709Z,10.64
2019-05-20T01:04:09.186Z,10.66
2019-05-20T01:06:37.836Z,10.68
2019-05-20T01:09:07.828Z,10.70
2019-05-20T01:11:36.422Z,10.72
2019-05-20T01:14:05.319Z,10.75
2019-05-20T01:16:33.923Z,10.77
2019-05-20T01:19:02.629Z,10.79
2019-05-20T01:21:31.203Z,10.78
2019-05-20T01:23:59.792Z,10.77
2019-05-20T01:26:28.536Z,10.75
2019-05-20T01:28:57.080Z,10.75
2019-05-20T01:31:25.689Z,10.74
2019-05-20T01:33:54.281Z,10.74
2019-05-20T01:36:22.873Z,10.74
2019-05-20T01:38:51.358Z,10.73
2019-05-20T01:41:19.812Z,10.73
2019-05-20T01:43:48.300Z,10.72
2019-05-20T01:46:16.958Z,10.68
2019-05-20T01:48:45.571Z,10.66
2019-05-20T01:51:14.165Z,10.66
2019-05-20T01:53:42.717Z,10.66
2019-05-20T01:56:11.347Z,10.65
2019-05-20T01:58:40.111Z,10.65
2019-05-20T02:01:08.757Z,10.66
2019-05-20T02:03:37.290Z,10.68
2019-05-20T02:06:05.896Z,10.69
2019-05-20T02:08:34.423Z,10.72
2019-05-20T02:11:02.954Z,10.74
2019-05-20T02:13:49.991Z,10.75
2019-05-20T02:16:19.712Z,10.76
2019-05-20T02:18:48.393Z,10.74
2019-05-20T02:21:16.942Z,10.75
2019-05-20T02:23:45.513Z,10.75
2019-05-20T02:26:14.039Z,10.73
2019-05-20T02:28:42.748Z,10.74
2019-05-20T02:31:11.303Z,10.70
2019-05-20T02:33:51.117Z,10.66
2019-05-20T02:36:10.087Z,10.65
2019-05-20T02:38:38.655Z,10.62
2019-05-20T02:41:07.418Z,10.61
2019-05-20T02:43:36.016Z,10.61
2019-05-20T02:46:05.262Z,10.65
2019-05-20T02:48:33.782Z,10.74
2019-05-20T02:51:02.330Z,10.84
2019-05-20T02:53:30.905Z,10.94
2019-05-20T02:55:59.435Z,11.01
2019-05-20T02:58:28.063Z,11.08
2019-05-20T03:00:56.670Z,11.13
2019-05-20T03:03:25.194Z,11.20
2019-05-20T03:05:53.722Z,11.26
2019-05-20T03:08:22.261Z,11.33
2019-05-20T03:10:50.883Z,11.39
2019-05-20T03:13:19.337Z,11.45
2019-05-20T03:15:47.792Z,11.50
2019-05-20T03:18:16.328Z,11.56
2019-05-20T03:20:44.790Z,11.61
2019-05-20T03:23:13.341Z,11.65
2019-05-20T03:25:42.135Z,11.71
2019-05-20T03:28:10.725Z,11.77
2019-05-20T03:30:39.256Z,11.82
2019-05-20T03:33:07.872Z,11.86
2019-05-20T03:35:36.407Z,11.91
2019-05-20T03:38:04.992Z,11.96
2019-05-20T03:40:33.587Z,11.99
2019-05-20T03:43:02.185Z,12.04
2019-05-20T03:45:30.912Z,12.08
2019-05-20T03:47:59.439Z,12.13
2019-05-20T03:50:27.994Z,12.17
2019-05-20T03:52:56.463Z,12.20
2019-05-20T03:55:24.923Z,12.24
2019-05-20T03:57:53.601Z,12.28
2019-05-20T04:00:41.713Z,12.32
2019-05-20T04:03:10.313Z,12.36
2019-05-20T04:05:39.806Z,12.40
2019-05-20T04:08:08.399Z,12.45
2019-05-20T04:10:37.062Z,12.49
2019-05-20T04:13:05.608Z,12.53
2019-05-20T04:15:34.302Z,12.57
2019-05-20T04:18:03.010Z,12.62
2019-05-20T04:20:32.409Z,12.65
2019-05-20T04:23:00.935Z,12.68
2019-05-20T04:25:29.529Z,12.73
2019-05-20T04:27:58.127Z,12.76
2019-05-20T04:30:26.735Z,12.80
2019-05-20T04:32:55.324Z,12.86
2019-05-20T04:35:23.960Z,12.90
2019-05-20T04:37:52.537Z,12.94
2019-05-20T04:40:21.160Z,12.99
2019-05-20T04:42:49.620Z,13.04
2019-05-20T04:45:18.427Z,13.08
2019-05-20T04:47:46.968Z,13.12
2019-05-20T04:50:15.654Z,13.16
2019-05-20T04:52:44.249Z,13.20
2019-05-20T04:55:12.831Z,13.23
2019-05-20T04:57:41.356Z,13.26
2019-05-20T05:00:10.551Z,13.32
2019-05-20T05:02:43.208Z,13.37
2019-05-20T05:05:09.769Z,13.40
2019-05-20T05:07:38.434Z,13.43
2019-05-20T05:10:08.692Z,13.48
2019-05-20T05:12:37.398Z,13.52
2019-05-20T05:15:08.983Z,13.57
2019-05-20T05:17:37.617Z,13.63
2019-05-20T05:20:06.870Z,13.65
2019-05-20T05:22:35.439Z,13.70
2019-05-20T05:25:05.456Z,13.74
2019-05-20T05:27:34.147Z,13.77
2019-05-20T05:30:02.743Z,13.80
2019-05-20T05:32:44.120Z,13.82
2019-05-20T05:35:16.473Z,13.86
2019-05-20T05:37:45.208Z,13.89
2019-05-20T05:40:15.189Z,13.91
2019-05-20T05:42:43.929Z,13.94
2019-05-20T05:45:13.031Z,13.97
2019-05-20T05:47:41.489Z,13.99
2019-05-20T05:50:10.196Z,13.99
2019-05-20T05:52:38.717Z,14.00
2019-05-20T05:55:07.516Z,14.05
2019-05-20T05:57:36.041Z,14.08
2019-05-20T06:00:06.836Z,14.09
2019-05-20T06:02:35.357Z,14.10
2019-05-20T06:05:04.348Z,14.12
2019-05-20T06:07:32.904Z,14.13
2019-05-20T06:10:01.447Z,14.16
2019-05-20T06:12:29.993Z,14.20
2019-05-20T06:14:58.518Z,14.25
2019-05-20T06:17:26.965Z,14.27
2019-05-20T06:19:55.512Z,14.28
2019-05-20T06:22:23.965Z,14.31
2019-05-20T06:24:52.608Z,14.33
2019-05-20T06:27:21.302Z,14.37
2019-05-20T06:29:49.928Z,14.42
2019-05-20T06:32:18.533Z,14.50
2019-05-20T06:34:47.139Z,14.58
2019-05-20T06:37:20.321Z,14.66
2019-05-20T06:39:51.226Z,14.72
2019-05-20T06:42:19.202Z,14.74
2019-05-20T06:44:53.040Z,14.78
2019-05-20T06:47:17.979Z,14.82
2019-05-20T06:49:46.558Z,14.86
2019-05-20T06:52:15.209Z,14.91
2019-05-20T06:54:43.790Z,14.95
2019-05-20T06:57:12.816Z,14.98
2019-05-20T06:59:41.612Z,15.03
2019-05-20T07:02:10.211Z,15.06
2019-05-20T07:04:38.735Z,15.12
2019-05-20T07:07:19.977Z,15.17
2019-05-20T07:09:37.468Z,15.23
2019-05-20T07:12:06.134Z,15.28
2019-05-20T07:14:34.789Z,15.32
2019-05-20T07:17:03.446Z,15.36
2019-05-20T07:19:32.023Z,15.40
2019-05-20T07:22:00.565Z,15.43
2019-05-20T07:24:29.081Z,15.44
2019-05-20T07:26:57.676Z,15.47
2019-05-20T07:29:26.254Z,15.49
2019-05-20T07:31:54.916Z,15.49
2019-05-20T07:34:23.376Z,15.51
2019-05-20T07:37:02.638Z,15.54
2019-05-20T07:39:22.321Z,15.62
2019-05-20T07:41:51.968Z,15.72
2019-05-20T07:44:20.489Z,15.83
2019-05-20T07:46:49.301Z,15.90
2019-05-20T07:49:18.424Z,15.96
2019-05-20T07:51:48.763Z,16.02
2019-05-20T07:54:18.862Z,16.09
2019-05-20T07:56:49.765Z,16.16
2019-05-20T07:59:21.310Z,16.24
2019-05-20T08:01:51.312Z,16.33
2019-05-20T08:04:19.993Z,16.46
2019-05-20T08:06:48.723Z,16.60
2019-05-20T08:09:17.326Z,16.72
2019-05-20T08:11:45.950Z,16.84
2019-05-20T08:14:14.515Z,16.96
2019-05-20T08:16:43.139Z,17.07
2019-05-20T08:19:11.737Z,17.26
2019-05-20T08:21:40.333Z,17.37
2019-05-20T08:24:08.920Z,17.41
2019-05-20T08:26:37.494Z,17.42
2019-05-20T08:29:06.120Z,17.35
2019-05-20T08:31:34.662Z,17.22
2019-05-20T08:34:03.422Z,17.10
2019-05-20T08:36:32.217Z,17.03
2019-05-20T08:39:00.747Z,16.93
2019-05-20T08:41:29.548Z,16.92
2019-05-20T08:43:58.155Z,16.89
2019-05-20T08:46:26.762Z,16.89
2019-05-20T08:48:55.341Z,16.88
2019-05-20T08:51:23.918Z,16.83
2019-05-20T08:53:52.460Z,16.81
2019-05-20T08:56:20.994Z,16.82
2019-05-20T08:58:49.461Z,16.89
2019-05-20T09:01:17.961Z,16.96
2019-05-20T09:03:46.484Z,17.03
2019-05-20T09:06:15.168Z,17.09
2019-05-20T09:08:43.735Z,17.13
2019-05-20T09:11:12.364Z,17.08
2019-05-20T09:13:40.822Z,17.11
2019-05-20T09:16:09.387Z,17.21
2019-05-20T09:18:38.099Z,17.30
2019-05-20T09:21:06.753Z,17.35
2019-05-20T09:23:35.222Z,17.43
2019-05-20T09:26:04.029Z,17.55
2019-05-20T09:28:32.632Z,17.67
2019-05-20T09:31:01.450Z,17.77
2019-05-20T09:33:30.615Z,17.93
2019-05-20T09:35:59.246Z,18.08
2019-05-20T09:38:27.776Z,18.28
2019-05-20T09:40:56.397Z,18.38
2019-05-20T09:43:25.103Z,18.35
2019-05-20T09:46:06.327Z,18.37
2019-05-20T09:48:25.246Z,18.36
2019-05-20T09:50:54.533Z,18.42
2019-05-20T09:53:23.917Z,18.49
2019-05-20T09:55:52.683Z,18.58
2019-05-20T09:58:21.366Z,18.66
2019-05-20T10:00:49.946Z,18.71
2019-05-20T10:03:18.494Z,18.72
2019-05-20T10:05:47.109Z,18.68
2019-05-20T10:08:15.739Z,18.62
2019-05-20T10:10:44.401Z,18.57
2019-05-20T10:13:13.021Z,18.49
2019-05-20T10:15:41.587Z,18.47
2019-05-20T10:18:10.180Z,18.49
2019-05-20T10:20:38.702Z,18.52
2019-05-20T10:23:07.454Z,18.51
2019-05-20T10:25:35.960Z,18.54
2019-05-20T10:28:04.666Z,18.63
2019-05-20T10:30:33.254Z,18.81
2019-05-20T10:33:01.861Z,18.93
2019-05-20T10:35:30.431Z,19.00
2019-05-20T10:37:59.071Z,18.99
2019-05-20T10:40:27.723Z,18.92
2019-05-20T10:42:56.180Z,18.93
2019-05-20T10:45:24.715Z,18.94
2019-05-20T10:47:53.328Z,18.94
2019-05-20T10:50:22.064Z,18.92
2019-05-20T10:52:50.672Z,18.89
2019-05-20T10:55:19.821Z,18.81
2019-05-20T10:57:48.273Z,18.73
2019-05-20T11:00:18.521Z,18.64
2019-05-20T11:02:47.270Z,18.61
2019-05-20T11:05:16.023Z,18.64
2019-05-20T11:07:45.308Z,18.67
2019-05-20T11:10:15.003Z,18.72
2019-05-20T11:12:43.550Z,18.74
2019-05-20T11:15:12.440Z,18.80
2019-05-20T11:17:41.165Z,18.84
2019-05-20T11:20:10.463Z,18.87
2019-05-20T11:22:38.907Z,18.86
2019-05-20T11:25:08.390Z,18.90
2019-05-20T11:27:37.021Z,18.98
2019-05-20T11:30:09.861Z,19.03
2019-05-20T11:32:38.439Z,19.05
2019-05-20T11:35:08.634Z,19.08
2019-05-20T11:37:37.222Z,19.11
2019-05-20T11:40:09.905Z,19.12
2019-05-20T11:42:39.008Z,19.07
2019-05-20T11:45:09.391Z,19.09
2019-05-20T11:47:38.006Z,19.09
2019-05-20T11:50:07.709Z,19.11
2019-05-20T11:52:36.296Z,19.12
2019-05-20T11:55:09.174Z,19.08
2019-05-20T11:57:37.866Z,19.07
2019-05-20T12:00:08.212Z,19.13
2019-05-20T12:02:36.740Z,19.15
2019-05-20T12:05:09.747Z,19.14
2019-05-20T12:07:38.341Z,19.16
2019-05-20T12:10:08.059Z,19.18
2019-05-20T12:12:36.677Z,19.18
2019-05-20T12:15:09.714Z,19.16
2019-05-20T12:17:38.330Z,19.17
2019-05-20T12:20:10.874Z,19.23
2019-05-20T12:22:39.176Z,19.35
2019-05-20T12:25:08.435Z,19.40
2019-05-20T12:27:37.047Z,19.36
2019-05-20T12:30:06.841Z,19.33
2019-05-20T12:32:35.372Z,19.32
2019-05-20T12:35:05.771Z,19.36
2019-05-20T12:37:34.339Z,19.46
2019-05-20T12:40:07.865Z,19.54
2019-05-20T12:42:33.184Z,19.57
2019-05-20T12:45:01.748Z,19.67
2019-05-20T12:47:30.261Z,19.78
2019-05-20T12:49:58.803Z,19.83
2019-05-20T12:52:27.392Z,19.91
2019-05-20T12:55:06.859Z,20.05
2019-05-20T12:57:26.321Z,20.09
2019-05-20T12:59:54.952Z,20.16
2019-05-20T13:02:23.472Z,20.26
2019-05-20T13:04:51.990Z,20.35
2019-05-20T13:07:20.588Z,20.48
2019-05-20T13:09:49.109Z,20.58
2019-05-20T13:12:17.633Z,20.62
2019-05-20T13:14:46.157Z,20.56
2019-05-20T13:17:14.609Z,20.54
2019-05-20T13:19:43.140Z,20.55
2019-05-20T13:22:11.766Z,20.61
2019-05-20T13:24:40.291Z,20.68
2019-05-20T13:27:08.852Z,20.78
2019-05-20T13:29:37.490Z,20.82
2019-05-20T13:32:06.108Z,20.86
2019-05-20T13:34:34.644Z,20.90
2019-05-20T13:37:03.280Z,20.91
2019-05-20T13:39:33.051Z,20.96
2019-05-20T13:42:03.308Z,20.99
2019-05-20T13:44:31.868Z,20.93
2019-05-20T13:47:00.488Z,20.88
2019-05-20T13:49:29.035Z,20.68
2019-05-20T13:51:57.563Z,20.59
2019-05-20T13:54:26.209Z,20.56
2019-05-20T13:56:55.159Z,20.49
2019-05-20T13:59:23.836Z,20.33
2019-05-20T14:01:52.479Z,20.18
2019-05-20T14:04:21.272Z,19.95
2019-05-20T14:06:49.825Z,19.82
2019-05-20T14:09:18.417Z,19.67
2019-05-20T14:11:47.027Z,19.60
2019-05-20T14:14:15.666Z,19.54
2019-05-20T14:16:44.284Z,19.48
2019-05-20T14:19:12.814Z,19.38
2019-05-20T14:21:41.380Z,19.34
2019-05-20T14:24:09.984Z,19.31
2019-05-20T14:26:38.552Z,19.35
2019-05-20T14:29:07.153Z,19.33
2019-05-20T14:31:35.638Z,19.29
2019-05-20T14:34:04.238Z,19.35
2019-05-20T14:36:40.519Z,19.52
2019-05-20T14:39:04.894Z,19.63
2019-05-20T14:41:33.544Z,19.66
2019-05-20T14:44:02.189Z,19.75
2019-05-20T14:46:30.659Z,19.76
2019-05-20T14:49:02.408Z,19.77
2019-05-20T14:51:29.462Z,19.84
2019-05-20T14:53:57.984Z,19.98
2019-05-20T14:56:26.501Z,20.02
2019-05-20T14:58:55.839Z,20.09
2019-05-20T15:01:24.509Z,20.12
2019-05-20T15:03:53.119Z,20.13
2019-05-20T15:06:21.860Z,20.15
2019-05-20T15:08:50.390Z,20.06
2019-05-20T15:11:18.839Z,19.97
2019-05-20T15:13:47.438Z,20.01
2019-05-20T15:16:16.070Z,20.05
2019-05-20T15:18:44.587Z,20.10
2019-05-20T15:21:13.172Z,20.08
2019-05-20T15:23:42.587Z,20.03
2019-05-20T15:26:11.178Z,19.91
2019-05-20T15:28:39.712Z,19.79
2019-05-20T15:31:08.237Z,19.67
2019-05-20T15:33:36.888Z,19.63
2019-05-20T15:36:05.743Z,19.66
2019-05-20T15:38:34.196Z,19.63
2019-05-20T15:41:02.718Z,19.52
2019-05-20T15:43:31.177Z,19.38
2019-05-20T15:45:59.799Z,19.35
2019-05-20T15:48:28.361Z,19.32
2019-05-20T15:50:56.865Z,19.24
2019-05-20T15:53:25.455Z,19.17
2019-05-20T15:55:54.016Z,19.12
2019-05-20T15:58:23.886Z,19.11
2019-05-20T16:00:52.740Z,19.04
2019-05-20T16:03:21.293Z,18.96
2019-05-20T16:05:49.880Z,18.88
2019-05-20T16:08:18.402Z,18.77
2019-05-20T16:10:46.966Z,18.68
2019-05-20T16:13:15.556Z,18.54
2019-05-20T16:15:44.090Z,18.42
2019-05-20T16:18:12.709Z,18.31
2019-05-20T16:20:41.244Z,18.21
2019-05-20T16:23:09.801Z,18.13
2019-05-20T16:25:38.372Z,18.06
2019-05-20T16:28:07.275Z,18.02
2019-05-20T16:30:35.923Z,18.02
2019-05-20T16:33:04.583Z,18.05
2019-05-20T16:35:33.100Z,18.09
2019-05-20T16:38:01.931Z,18.17
2019-05-20T16:40:30.608Z,18.19
2019-05-20T16:42:59.257Z,18.20
2019-05-20T16:45:27.959Z,18.19
2019-05-20T16:48:14.264Z,18.19
2019-05-20T16:50:42.931Z,18.21
2019-05-20T16:53:11.539Z,18.16
2019-05-20T16:55:40.062Z,18.14
2019-05-20T16:58:08.631Z,18.09
2019-05-20T17:00:37.650Z,18.07
2019-05-20T17:03:06.241Z,18.05
2019-05-20T17:05:34.908Z,18.02
2019-05-20T17:08:03.504Z,18.00
2019-05-20T17:10:32.040Z,18.01
2019-05-20T17:13:01.030Z,18.01
2019-05-20T17:15:30.121Z,18.01
2019-05-20T17:17:59.040Z,18.02
2019-05-20T17:20:27.620Z,18.04
2019-05-20T17:22:56.353Z,18.03
2019-05-20T17:25:25.965Z,18.02
2019-05-20T17:27:55.192Z,18.02
2019-05-20T17:30:24.981Z,18.00
2019-05-20T17:32:53.803Z,17.97
2019-05-20T17:35:23.386Z,17.95
2019-05-20T17:37:55.370Z,17.89
2019-05-20T17:40:24.961Z,17.89
2019-05-20T17:42:54.414Z,17.87
2019-05-20T17:45:24.411Z,17.86
2019-05-20T17:47:55.154Z,17.85
2019-05-20T17:50:24.185Z,17.85
2019-05-20T17:52:52.871Z,17.83
2019-05-20T17:55:21.668Z,17.84
2019-05-20T17:57:50.495Z,17.83
2019-05-20T18:00:23.892Z,17.78
2019-05-20T18:02:52.799Z,17.75
2019-05-20T18:05:21.474Z,17.75
2019-05-20T18:07:50.083Z,17.76
2019-05-20T18:10:20.318Z,17.76
2019-05-20T18:12:49.168Z,17.73
2019-05-20T18:15:17.967Z,17.66
2019-05-20T18:17:47.084Z,17.61
2019-05-20T18:20:16.862Z,17.54
2019-05-20T18:22:45.736Z,17.47
2019-05-20T18:25:15.376Z,17.41
2019-05-20T18:27:44.764Z,17.36
2019-05-20T18:30:15.026Z,17.33
2019-05-20T18:32:45.263Z,17.27
2019-05-20T18:35:15.613Z,17.24
2019-05-20T18:37:45.487Z,17.19
2019-05-20T18:40:16.307Z,17.15
2019-05-20T18:42:46.268Z,17.12
2019-05-20T18:45:15.930Z,17.10
2019-05-20T18:47:45.886Z,17.08
2019-05-20T18:50:17.429Z,17.03
2019-05-20T18:52:47.858Z,17.00
2019-05-20T18:55:18.475Z,16.95
2019-05-20T18:57:48.841Z,16.91
2019-05-20T19:00:19.612Z,16.89
2019-05-20T19:02:49.757Z,16.86
2019-05-20T19:05:20.398Z,16.81
2019-05-20T19:07:52.320Z,16.78
2019-05-20T19:10:40.633Z,16.76
2019-05-20T19:13:11.946Z,16.73
2019-05-20T19:15:43.428Z,16.69
2019-05-20T19:18:14.573Z,16.65
2019-05-20T19:20:45.688Z,16.62
2019-05-20T19:23:16.750Z,16.59
2019-05-20T19:25:47.699Z,16.54
2019-05-20T19:28:18.876Z,16.51
2019-05-20T19:31:43.162Z,16.50
2019-05-20T19:34:14.820Z,16.48
2019-05-20T19:36:45.510Z,16.44
2019-05-20T19:39:16.384Z,16.42
2019-05-20T19:41:46.607Z,16.39
2019-05-20T19:44:17.847Z,16.36
2019-05-20T19:46:48.569Z,16.35
2019-05-20T19:49:19.310Z,16.35
2019-05-20T19:52:43.242Z,16.33
2019-05-20T19:55:13.523Z,16.32
2019-05-20T19:57:43.545Z,16.26
2019-05-20T20:00:13.880Z,16.26
2019-05-20T20:02:43.535Z,16.23
2019-05-20T20:05:13.749Z,16.22
2019-05-20T20:07:44.121Z,16.20
2019-05-20T20:10:14.539Z,16.15
2019-05-20T20:12:44.358Z,16.14
2019-05-20T20:15:20.822Z,16.11
2019-05-20T20:17:50.773Z,16.07
2019-05-20T20:20:20.864Z,16.04
2019-05-20T20:22:51.277Z,16.01
2019-05-20T20:25:21.613Z,15.98
2019-05-20T20:27:51.906Z,15.96
2019-05-20T20:30:21.669Z,15.93
2019-05-20T20:33:46.330Z,15.91
2019-05-20T20:36:16.417Z,15.91
2019-05-20T20:38:46.488Z,15.86
2019-05-20T20:41:16.994Z,15.85
2019-05-20T20:43:46.824Z,15.83
2019-05-20T20:46:16.386Z,15.81
2019-05-20T20:48:45.965Z,15.80
2019-05-20T20:51:14.967Z,15.78
2019-05-20T20:53:43.656Z,15.78
2019-05-20T20:56:24.711Z,15.76
2019-05-20T20:58:42.590Z,15.74
2019-05-20T21:01:11.506Z,15.71
2019-05-20T21:03:40.341Z,15.67
2019-05-20T21:06:09.021Z,15.64
2019-05-20T21:08:37.638Z,15.62
2019-05-20T21:11:07.018Z,15.60
2019-05-20T21:13:35.697Z,15.59
2019-05-20T21:16:04.316Z,15.56
2019-05-20T21:18:32.890Z,15.55
2019-05-20T21:21:01.482Z,15.51
2019-05-20T21:23:30.102Z,15.49
2019-05-20T21:25:58.620Z,15.46
2019-05-20T21:28:27.191Z,15.43
2019-05-20T21:30:55.647Z,15.41
2019-05-20T21:33:24.102Z,15.40
2019-05-20T21:35:52.772Z,15.36
2019-05-20T21:38:21.384Z,15.34
2019-05-20T21:40:49.976Z,15.30
2019-05-20T21:43:18.650Z,15.26
2019-05-20T21:45:47.163Z,15.24
2019-05-20T21:48:15.693Z,15.20
2019-05-20T21:50:44.142Z,15.17
2019-05-20T21:53:12.702Z,15.14
2019-05-20T21:55:41.219Z,15.13
2019-05-20T21:58:09.691Z,15.11
2019-05-20T22:00:45.947Z,15.08
2019-05-20T22:03:23.975Z,15.06
2019-05-20T22:05:44.821Z,15.04
2019-05-20T22:08:13.422Z,15.02
2019-05-20T22:10:41.876Z,15.02
2019-05-20T22:13:10.344Z,14.99
2019-05-20T22:15:38.931Z,14.98
2019-05-20T22:18:07.548Z,14.97
2019-05-20T22:20:36.133Z,14.95
2019-05-20T22:23:22.473Z,14.92
2019-05-20T22:25:52.500Z,14.90
2019-05-20T22:28:21.105Z,14.88
2019-05-20T22:30:49.820Z,14.85
2019-05-20T22:33:18.367Z,14.86
2019-05-20T22:35:46.869Z,14.86
2019-05-20T22:38:15.391Z,14.85
2019-05-20T22:40:44.475Z,14.83
2019-05-20T22:43:13.012Z,14.80
2019-05-20T22:45:41.489Z,14.79
2019-05-20T22:48:09.935Z,14.80
2019-05-20T22:50:38.547Z,14.81
2019-05-20T22:53:07.030Z,14.78
2019-05-20T22:55:35.497Z,14.73
2019-05-20T22:58:04.102Z,14.70
2019-05-20T23:00:32.654Z,14.67
2019-05-20T23:03:01.109Z,14.65
2019-05-20T23:05:29.579Z,14.63
2019-05-20T23:07:58.040Z,14.60
2019-05-20T23:10:26.631Z,14.60
2019-05-20T23:12:55.241Z,14.57
2019-05-20T23:15:23.814Z,14.55
2019-05-20T23:17:52.367Z,14.47
2019-05-20T23:20:20.947Z,14.41
2019-05-20T23:22:49.420Z,14.34
2019-05-20T23:25:17.899Z,14.31
2019-05-20T23:27:46.417Z,14.25
2019-05-20T23:30:15.336Z,14.19
2019-05-20T23:32:43.789Z,14.17
2019-05-20T23:35:12.425Z,14.15
2019-05-20T23:37:40.882Z,14.12
2019-05-20T23:40:11.120Z,14.09
2019-05-20T23:42:39.551Z,14.06
2019-05-20T23:45:08.838Z,14.02
2019-05-20T23:47:37.593Z,13.99
2019-05-20T23:50:06.680Z,13.96
2019-05-20T23:52:35.168Z,13.94
2019-05-20T23:55:05.103Z,13.92
2019-05-20T23:57:33.624Z,13.90
